Hamilton, MO

11:15 AM CST on February 01, 2015 (GMT -0600)
Lake Viking | Change Station
CLOSE
Current Station
Personal Weather Station
Location: Gallatin, MO
Elevation: 909 ft
Nearby Weather Stations

Elev 909 ft 39.92 °N, 94.06 °W | Updated 14 minutes ago

Snow
Snow
34.3 °F
Feels Like 29 °F
N
6.3
Wind Variable Wind from SW

Today
High -- | Low -- °F
--% Chance of Precip.
Yesterday
High -- | Low -- °F
Precip. -- in
7:24 AM 5:35 PM
Waxing Gibbous, 95% visible
Pressure 29.77 in
Visibility 2.0 miles
Clouds Overcast 600 ft
Windchill 29 °F
Dew Point 33 °F
Humidity 96%
Rainfall 0.07 in
Snow Depth Not available.
UV 1 out of 12
Pollen .10 out of 12
Air Quality Not available.
Flu Activity Not available.
METAR KGPH 011655Z AUTO 31009KT 2SM -SN OVC006 01/00 A2977 RMK AO2

More Conditions Fewer Conditions

Pressure 29.77 in
Visibility 2.0 miles
Clouds Overcast 600 ft
Windchill 29 °F
Dew Point 33 °F
Humidity 96%
Rainfall 0.07 in
Snow Depth Not available.
UV 1 out of 12
Pollen .10 out of 12
Air Quality Not available.
Flu Activity Not available.
METAR KGPH 011655Z AUTO 31009KT 2SM -SN OVC006 01/00 A2977 RMK AO2

More Conditions Fewer Conditions

10-Day Weather Forecast

Almanac

Astronomy

Feb. 01, 2015 Rise Set
Actual Time
Civil Twilight
Nautical Twilight
Astronomical Twilight
Moon
Length of Visible Light
Length of Day
Tomorrow will be .
, % of the Moon is Illuminated

Today's Extremes

State Highs State Lows

Community

WunderPhotos

Upload Photos

1,792,394 photos uploaded!

WunderBlogs® & News

Nearby

Air Quality

  Air Quality AQ Index Pollutant
Not available.

Snow Depth

Station Depth Elevation

Earthquake Activity

City Distance Mag. Time & Date
Minimum magnitude displayed is 2.5.

Coastal Water Temperatures

Place Temperature

Nearby Weather Stations